sensor_id;sensor_type;location;lat;lon;timestamp;P1;durP1;ratioP1;P2;durP2;ratioP2
11671;SDS011;5892;43.412;24.612;2022-08-19T00:01:54;6.70;;;6.10;;
11671;SDS011;5892;43.412;24.612;2022-08-19T00:04:24;12.17;;;6.43;;
11671;SDS011;5892;43.412;24.612;2022-08-19T00:06:55;8.17;;;6.30;;
11671;SDS011;5892;43.412;24.612;2022-08-19T00:09:28;10.23;;;6.80;;
11671;SDS011;5892;43.412;24.612;2022-08-19T00:15:05;9.57;;;6.70;;
11671;SDS011;5892;43.412;24.612;2022-08-19T00:17:51;7.97;;;6.33;;
11671;SDS011;5892;43.412;24.612;2022-08-19T00:20:19;13.60;;;6.20;;
11671;SDS011;5892;43.412;24.612;2022-08-19T00:25:47;13.23;;;6.90;;
11671;SDS011;5892;43.412;24.612;2022-08-19T00:28:14;8.70;;;6.73;;
11671;SDS011;5892;43.412;24.612;2022-08-19T00:30:43;9.60;;;6.90;;
11671;SDS011;5892;43.412;24.612;2022-08-19T00:33:24;7.60;;;6.53;;
11671;SDS011;5892;43.412;24.612;2022-08-19T00:35:51;11.33;;;6.33;;
11671;SDS011;5892;43.412;24.612;2022-08-19T00:38:22;10.10;;;6.53;;
11671;SDS011;5892;43.412;24.612;2022-08-19T00:50:13;10.37;;;6.83;;
11671;SDS011;5892;43.412;24.612;2022-08-19T00:52:43;7.97;;;6.63;;
11671;SDS011;5892;43.412;24.612;2022-08-19T00:58:20;7.83;;;7.03;;
11671;SDS011;5892;43.412;24.612;2022-08-19T01:00:57;9.23;;;7.00;;
11671;SDS011;5892;43.412;24.612;2022-08-19T01:03:38;7.87;;;6.47;;
11671;SDS011;5892;43.412;24.612;2022-08-19T01:06:06;9.23;;;7.27;;
11671;SDS011;5892;43.412;24.612;2022-08-19T01:08:34;8.83;;;7.30;;
11671;SDS011;5892;43.412;24.612;2022-08-19T01:14:43;11.43;;;7.07;;
11671;SDS011;5892;43.412;24.612;2022-08-19T01:17:16;10.53;;;7.23;;
11671;SDS011;5892;43.412;24.612;2022-08-19T01:19:44;9.10;;;7.40;;
11671;SDS011;5892;43.412;24.612;2022-08-19T01:22:15;12.50;;;7.87;;
11671;SDS011;5892;43.412;24.612;2022-08-19T01:24:48;10.37;;;7.33;;
11671;SDS011;5892;43.412;24.612;2022-08-19T01:27:19;11.23;;;7.47;;
11671;SDS011;5892;43.412;24.612;2022-08-19T01:29:46;7.93;;;7.23;;
11671;SDS011;5892;43.412;24.612;2022-08-19T01:32:15;10.27;;;7.20;;
11671;SDS011;5892;43.412;24.612;2022-08-19T01:34:44;9.07;;;7.40;;
11671;SDS011;5892;43.412;24.612;2022-08-19T01:37:13;10.83;;;7.47;;
11671;SDS011;5892;43.412;24.612;2022-08-19T01:39:43;8.40;;;7.10;;
11671;SDS011;5892;43.412;24.612;2022-08-19T01:42:44;9.87;;;8.03;;
11671;SDS011;5892;43.412;24.612;2022-08-19T01:45:11;9.77;;;7.90;;
11671;SDS011;5892;43.412;24.612;2022-08-19T01:47:39;10.53;;;8.50;;
11671;SDS011;5892;43.412;24.612;2022-08-19T01:50:09;11.27;;;7.90;;
11671;SDS011;5892;43.412;24.612;2022-08-19T02:09:15;11.97;;;7.80;;
11671;SDS011;5892;43.412;24.612;2022-08-19T02:11:56;8.97;;;8.00;;
11671;SDS011;5892;43.412;24.612;2022-08-19T02:40:59;11.00;;;7.97;;
11671;SDS011;5892;43.412;24.612;2022-08-19T02:43:31;10.67;;;7.97;;
11671;SDS011;5892;43.412;24.612;2022-08-19T02:46:02;9.23;;;7.70;;
11671;SDS011;5892;43.412;24.612;2022-08-19T02:48:52;11.50;;;8.20;;
11671;SDS011;5892;43.412;24.612;2022-08-19T02:51:25;8.17;;;7.37;;
11671;SDS011;5892;43.412;24.612;2022-08-19T02:53:58;10.93;;;8.03;;
11671;SDS011;5892;43.412;24.612;2022-08-19T03:03:13;15.47;;;8.00;;
11671;SDS011;5892;43.412;24.612;2022-08-19T03:12:05;14.03;;;8.33;;
11671;SDS011;5892;43.412;24.612;2022-08-19T03:14:33;14.73;;;8.63;;
11671;SDS011;5892;43.412;24.612;2022-08-19T03:17:01;11.13;;;7.80;;
11671;SDS011;5892;43.412;24.612;2022-08-19T03:19:31;12.37;;;8.23;;
11671;SDS011;5892;43.412;24.612;2022-08-19T03:22:18;20.80;;;8.80;;
11671;SDS011;5892;43.412;24.612;2022-08-19T03:25:26;16.40;;;8.23;;
11671;SDS011;5892;43.412;24.612;2022-08-19T03:28:05;13.47;;;8.63;;
11671;SDS011;5892;43.412;24.612;2022-08-19T03:30:34;14.37;;;9.47;;
11671;SDS011;5892;43.412;24.612;2022-08-19T03:33:23;13.67;;;9.00;;
11671;SDS011;5892;43.412;24.612;2022-08-19T03:36:04;11.97;;;8.73;;
11671;SDS011;5892;43.412;24.612;2022-08-19T03:38:35;13.63;;;8.60;;
11671;SDS011;5892;43.412;24.612;2022-08-19T03:41:12;16.30;;;8.60;;
11671;SDS011;5892;43.412;24.612;2022-08-19T03:50:20;11.37;;;8.93;;
11671;SDS011;5892;43.412;24.612;2022-08-19T03:52:48;13.57;;;9.23;;
11671;SDS011;5892;43.412;24.612;2022-08-19T03:55:38;15.53;;;9.00;;
11671;SDS011;5892;43.412;24.612;2022-08-19T03:58:07;11.87;;;9.20;;
11671;SDS011;5892;43.412;24.612;2022-08-19T04:01:06;13.37;;;8.77;;
11671;SDS011;5892;43.412;24.612;2022-08-19T04:03:49;12.60;;;8.87;;
11671;SDS011;5892;43.412;24.612;2022-08-19T04:06:23;21.80;;;9.40;;
11671;SDS011;5892;43.412;24.612;2022-08-19T04:08:54;15.90;;;9.60;;
11671;SDS011;5892;43.412;24.612;2022-08-19T04:11:25;20.70;;;9.70;;
11671;SDS011;5892;43.412;24.612;2022-08-19T04:13:54;16.87;;;8.90;;
11671;SDS011;5892;43.412;24.612;2022-08-19T04:16:24;20.87;;;9.00;;
11671;SDS011;5892;43.412;24.612;2022-08-19T04:18:54;15.23;;;9.23;;
11671;SDS011;5892;43.412;24.612;2022-08-19T04:21:30;10.80;;;8.60;;
11671;SDS011;5892;43.412;24.612;2022-08-19T04:24:00;27.40;;;9.37;;
11671;SDS011;5892;43.412;24.612;2022-08-19T04:26:29;15.83;;;8.43;;
11671;SDS011;5892;43.412;24.612;2022-08-19T04:29:03;14.27;;;8.60;;
11671;SDS011;5892;43.412;24.612;2022-08-19T04:31:33;14.30;;;8.80;;
11671;SDS011;5892;43.412;24.612;2022-08-19T04:34:02;15.93;;;8.90;;
11671;SDS011;5892;43.412;24.612;2022-08-19T04:36:35;16.70;;;8.80;;
11671;SDS011;5892;43.412;24.612;2022-08-19T04:39:05;18.00;;;8.80;;
11671;SDS011;5892;43.412;24.612;2022-08-19T04:41:36;12.30;;;8.80;;
11671;SDS011;5892;43.412;24.612;2022-08-19T04:44:20;14.63;;;9.00;;
11671;SDS011;5892;43.412;24.612;2022-08-19T04:46:50;23.30;;;8.80;;
11671;SDS011;5892;43.412;24.612;2022-08-19T04:49:21;15.23;;;9.10;;
11671;SDS011;5892;43.412;24.612;2022-08-19T04:51:52;17.87;;;9.17;;
11671;SDS011;5892;43.412;24.612;2022-08-19T04:54:21;13.30;;;8.70;;
11671;SDS011;5892;43.412;24.612;2022-08-19T04:56:50;14.40;;;8.37;;
11671;SDS011;5892;43.412;24.612;2022-08-19T04:59:21;15.20;;;8.93;;
11671;SDS011;5892;43.412;24.612;2022-08-19T05:01:48;12.33;;;8.17;;
11671;SDS011;5892;43.412;24.612;2022-08-19T05:04:17;12.07;;;8.00;;
11671;SDS011;5892;43.412;24.612;2022-08-19T05:06:46;14.60;;;8.13;;
11671;SDS011;5892;43.412;24.612;2022-08-19T05:09:16;18.73;;;8.73;;
11671;SDS011;5892;43.412;24.612;2022-08-19T05:11:46;10.93;;;8.10;;
11671;SDS011;5892;43.412;24.612;2022-08-19T05:14:14;11.73;;;7.83;;
11671;SDS011;5892;43.412;24.612;2022-08-19T05:16:42;15.30;;;8.80;;
11671;SDS011;5892;43.412;24.612;2022-08-19T05:19:09;14.60;;;7.93;;
11671;SDS011;5892;43.412;24.612;2022-08-19T05:21:54;14.07;;;7.17;;
11671;SDS011;5892;43.412;24.612;2022-08-19T05:24:40;10.20;;;7.53;;
11671;SDS011;5892;43.412;24.612;2022-08-19T05:27:07;11.53;;;7.30;;
11671;SDS011;5892;43.412;24.612;2022-08-19T05:29:35;10.00;;;7.40;;
11671;SDS011;5892;43.412;24.612;2022-08-19T05:32:03;14.40;;;8.13;;
11671;SDS011;5892;43.412;24.612;2022-08-19T05:34:33;17.53;;;7.93;;
11671;SDS011;5892;43.412;24.612;2022-08-19T05:37:01;12.43;;;7.53;;
11671;SDS011;5892;43.412;24.612;2022-08-19T05:39:30;9.40;;;7.30;;
11671;SDS011;5892;43.412;24.612;2022-08-19T05:42:08;12.20;;;8.00;;
11671;SDS011;5892;43.412;24.612;2022-08-19T05:44:38;10.77;;;6.90;;
11671;SDS011;5892;43.412;24.612;2022-08-19T05:47:09;10.17;;;6.43;;
11671;SDS011;5892;43.412;24.612;2022-08-19T05:49:37;7.47;;;6.30;;
11671;SDS011;5892;43.412;24.612;2022-08-19T05:52:08;8.23;;;6.50;;
11671;SDS011;5892;43.412;24.612;2022-08-19T05:54:37;10.87;;;6.10;;
11671;SDS011;5892;43.412;24.612;2022-08-19T05:57:08;9.27;;;6.27;;
11671;SDS011;5892;43.412;24.612;2022-08-19T05:59:36;7.97;;;6.00;;
11671;SDS011;5892;43.412;24.612;2022-08-19T06:02:03;7.83;;;6.37;;
11671;SDS011;5892;43.412;24.612;2022-08-19T06:04:38;6.97;;;5.43;;
11671;SDS011;5892;43.412;24.612;2022-08-19T06:07:07;7.57;;;5.40;;
11671;SDS011;5892;43.412;24.612;2022-08-19T06:09:35;8.67;;;5.40;;
11671;SDS011;5892;43.412;24.612;2022-08-19T06:12:04;8.27;;;5.73;;
11671;SDS011;5892;43.412;24.612;2022-08-19T06:14:34;6.60;;;5.60;;
11671;SDS011;5892;43.412;24.612;2022-08-19T06:17:03;6.97;;;5.53;;
11671;SDS011;5892;43.412;24.612;2022-08-19T06:19:30;5.90;;;5.10;;
11671;SDS011;5892;43.412;24.612;2022-08-19T06:21:58;7.87;;;5.20;;
11671;SDS011;5892;43.412;24.612;2022-08-19T06:24:27;6.77;;;5.20;;
11671;SDS011;5892;43.412;24.612;2022-08-19T06:26:57;5.20;;;4.70;;
11671;SDS011;5892;43.412;24.612;2022-08-19T06:29:26;7.90;;;5.63;;
11671;SDS011;5892;43.412;24.612;2022-08-19T06:31:57;5.75;;;5.15;;
11671;SDS011;5892;43.412;24.612;2022-08-19T06:34:30;5.47;;;4.90;;
11671;SDS011;5892;43.412;24.612;2022-08-19T06:37:00;9.13;;;4.93;;
11671;SDS011;5892;43.412;24.612;2022-08-19T06:39:30;7.22;;;4.38;;
11671;SDS011;5892;43.412;24.612;2022-08-19T06:42:00;5.70;;;4.53;;
11671;SDS011;5892;43.412;24.612;2022-08-19T06:44:32;6.88;;;4.50;;
11671;SDS011;5892;43.412;24.612;2022-08-19T06:47:05;6.80;;;4.80;;
11671;SDS011;5892;43.412;24.612;2022-08-19T06:49:34;6.80;;;4.70;;
11671;SDS011;5892;43.412;24.612;2022-08-19T06:52:03;10.63;;;5.00;;
11671;SDS011;5892;43.412;24.612;2022-08-19T06:54:30;6.65;;;4.80;;
11671;SDS011;5892;43.412;24.612;2022-08-19T06:56:58;7.97;;;4.60;;
11671;SDS011;5892;43.412;24.612;2022-08-19T06:59:28;9.70;;;5.05;;
11671;SDS011;5892;43.412;24.612;2022-08-19T07:01:58;4.93;;;4.40;;
11671;SDS011;5892;43.412;24.612;2022-08-19T07:04:34;5.63;;;4.70;;
11671;SDS011;5892;43.412;24.612;2022-08-19T07:07:04;6.55;;;4.70;;
11671;SDS011;5892;43.412;24.612;2022-08-19T07:09:34;6.70;;;4.50;;
11671;SDS011;5892;43.412;24.612;2022-08-19T07:12:04;5.90;;;4.50;;
11671;SDS011;5892;43.412;24.612;2022-08-19T07:14:34;6.00;;;4.50;;
11671;SDS011;5892;43.412;24.612;2022-08-19T07:17:04;5.45;;;4.60;;
11671;SDS011;5892;43.412;24.612;2022-08-19T07:19:37;6.03;;;4.78;;
11671;SDS011;5892;43.412;24.612;2022-08-19T07:22:06;10.85;;;4.60;;
11671;SDS011;5892;43.412;24.612;2022-08-19T07:24:36;7.47;;;5.03;;
11671;SDS011;5892;43.412;24.612;2022-08-19T07:27:05;7.20;;;4.80;;
11671;SDS011;5892;43.412;24.612;2022-08-19T07:29:35;7.18;;;4.18;;
11671;SDS011;5892;43.412;24.612;2022-08-19T07:32:05;5.07;;;4.25;;
11671;SDS011;5892;43.412;24.612;2022-08-19T07:34:35;6.40;;;4.97;;
11671;SDS011;5892;43.412;24.612;2022-08-19T07:37:04;6.43;;;4.53;;
11671;SDS011;5892;43.412;24.612;2022-08-19T07:39:36;7.45;;;5.05;;
11671;SDS011;5892;43.412;24.612;2022-08-19T07:42:06;9.20;;;4.57;;
11671;SDS011;5892;43.412;24.612;2022-08-19T07:44:39;5.80;;;4.72;;
11671;SDS011;5892;43.412;24.612;2022-08-19T07:47:06;6.30;;;4.43;;
11671;SDS011;5892;43.412;24.612;2022-08-19T07:49:33;6.30;;;4.68;;
11671;SDS011;5892;43.412;24.612;2022-08-19T07:52:04;6.38;;;4.75;;
11671;SDS011;5892;43.412;24.612;2022-08-19T07:54:34;8.00;;;4.53;;
11671;SDS011;5892;43.412;24.612;2022-08-19T07:57:13;6.53;;;4.70;;
11671;SDS011;5892;43.412;24.612;2022-08-19T07:59:41;5.53;;;4.60;;
11671;SDS011;5892;43.412;24.612;2022-08-19T08:02:09;5.30;;;4.35;;
11671;SDS011;5892;43.412;24.612;2022-08-19T08:04:36;6.32;;;4.32;;
11671;SDS011;5892;43.412;24.612;2022-08-19T08:07:22;6.25;;;4.57;;
11671;SDS011;5892;43.412;24.612;2022-08-19T08:10:06;5.00;;;4.50;;
11671;SDS011;5892;43.412;24.612;2022-08-19T08:12:36;6.28;;;4.38;;
11671;SDS011;5892;43.412;24.612;2022-08-19T08:15:09;8.25;;;4.40;;
11671;SDS011;5892;43.412;24.612;2022-08-19T08:17:41;8.27;;;4.35;;
11671;SDS011;5892;43.412;24.612;2022-08-19T08:20:09;6.18;;;4.43;;
11671;SDS011;5892;43.412;24.612;2022-08-19T08:22:41;6.43;;;4.78;;
11671;SDS011;5892;43.412;24.612;2022-08-19T08:25:26;8.20;;;4.38;;
11671;SDS011;5892;43.412;24.612;2022-08-19T08:27:56;6.93;;;4.00;;
11671;SDS011;5892;43.412;24.612;2022-08-19T08:30:25;8.30;;;4.60;;
11671;SDS011;5892;43.412;24.612;2022-08-19T08:32:57;6.72;;;4.40;;
11671;SDS011;5892;43.412;24.612;2022-08-19T08:35:25;4.45;;;3.92;;
11671;SDS011;5892;43.412;24.612;2022-08-19T08:37:54;4.97;;;3.90;;
11671;SDS011;5892;43.412;24.612;2022-08-19T08:40:26;5.38;;;4.20;;
11671;SDS011;5892;43.412;24.612;2022-08-19T08:42:57;6.25;;;4.20;;
11671;SDS011;5892;43.412;24.612;2022-08-19T08:45:42;5.35;;;4.00;;
11671;SDS011;5892;43.412;24.612;2022-08-19T08:48:16;6.43;;;4.30;;
11671;SDS011;5892;43.412;24.612;2022-08-19T08:50:54;5.55;;;3.90;;
11671;SDS011;5892;43.412;24.612;2022-08-19T08:53:25;5.85;;;3.95;;
11671;SDS011;5892;43.412;24.612;2022-08-19T08:55:53;11.93;;;4.45;;
11671;SDS011;5892;43.412;24.612;2022-08-19T08:58:24;4.75;;;4.30;;
11671;SDS011;5892;43.412;24.612;2022-08-19T09:00:55;8.98;;;4.57;;
11671;SDS011;5892;43.412;24.612;2022-08-19T09:03:26;8.45;;;4.07;;
11671;SDS011;5892;43.412;24.612;2022-08-19T09:05:56;4.88;;;4.38;;
11671;SDS011;5892;43.412;24.612;2022-08-19T09:11:50;7.07;;;4.40;;
11671;SDS011;5892;43.412;24.612;2022-08-19T09:14:32;5.97;;;4.30;;
11671;SDS011;5892;43.412;24.612;2022-08-19T09:17:07;6.07;;;4.88;;
11671;SDS011;5892;43.412;24.612;2022-08-19T09:19:36;5.97;;;4.50;;
11671;SDS011;5892;43.412;24.612;2022-08-19T09:22:14;5.50;;;4.30;;
11671;SDS011;5892;43.412;24.612;2022-08-19T09:24:44;8.07;;;4.90;;
11671;SDS011;5892;43.412;24.612;2022-08-19T09:27:12;8.20;;;5.00;;
11671;SDS011;5892;43.412;24.612;2022-08-19T09:29:40;5.95;;;4.78;;
11671;SDS011;5892;43.412;24.612;2022-08-19T09:32:08;7.35;;;4.55;;
11671;SDS011;5892;43.412;24.612;2022-08-19T09:34:56;5.95;;;4.30;;
11671;SDS011;5892;43.412;24.612;2022-08-19T09:38:04;7.85;;;4.60;;
11671;SDS011;5892;43.412;24.612;2022-08-19T09:43:41;8.05;;;4.18;;
11671;SDS011;5892;43.412;24.612;2022-08-19T09:46:11;4.90;;;4.40;;
11671;SDS011;5892;43.412;24.612;2022-08-19T09:48:41;5.78;;;4.70;;
11671;SDS011;5892;43.412;24.612;2022-08-19T09:51:11;5.45;;;4.43;;
11671;SDS011;5892;43.412;24.612;2022-08-19T09:53:40;6.45;;;4.32;;
11671;SDS011;5892;43.412;24.612;2022-08-19T09:56:11;5.45;;;4.53;;
11671;SDS011;5892;43.412;24.612;2022-08-19T09:58:43;5.57;;;4.50;;
11671;SDS011;5892;43.412;24.612;2022-08-19T10:01:25;5.22;;;4.50;;
11671;SDS011;5892;43.412;24.612;2022-08-19T10:03:55;6.07;;;4.38;;
11671;SDS011;5892;43.412;24.612;2022-08-19T10:06:25;7.13;;;4.68;;
11671;SDS011;5892;43.412;24.612;2022-08-19T10:09:06;8.77;;;5.00;;
11671;SDS011;5892;43.412;24.612;2022-08-19T10:11:36;5.47;;;4.63;;
11671;SDS011;5892;43.412;24.612;2022-08-19T10:17:43;5.13;;;4.63;;
11671;SDS011;5892;43.412;24.612;2022-08-19T10:20:15;5.50;;;4.75;;
11671;SDS011;5892;43.412;24.612;2022-08-19T10:22:55;7.28;;;4.80;;
11671;SDS011;5892;43.412;24.612;2022-08-19T10:25:36;7.22;;;4.60;;
11671;SDS011;5892;43.412;24.612;2022-08-19T10:28:09;8.18;;;4.63;;
11671;SDS011;5892;43.412;24.612;2022-08-19T10:30:37;8.27;;;4.82;;
11671;SDS011;5892;43.412;24.612;2022-08-19T10:33:08;6.05;;;4.75;;
11671;SDS011;5892;43.412;24.612;2022-08-19T10:35:40;7.38;;;4.60;;
11671;SDS011;5892;43.412;24.612;2022-08-19T10:38:09;6.47;;;4.72;;
11671;SDS011;5892;43.412;24.612;2022-08-19T10:40:37;5.15;;;4.57;;
11671;SDS011;5892;43.412;24.612;2022-08-19T10:43:05;6.97;;;5.00;;
11671;SDS011;5892;43.412;24.612;2022-08-19T10:45:33;9.18;;;5.00;;
11671;SDS011;5892;43.412;24.612;2022-08-19T10:48:02;6.57;;;4.93;;
11671;SDS011;5892;43.412;24.612;2022-08-19T10:50:33;6.60;;;5.00;;
11671;SDS011;5892;43.412;24.612;2022-08-19T10:53:19;9.35;;;4.57;;
11671;SDS011;5892;43.412;24.612;2022-08-19T10:55:50;6.20;;;4.63;;
11671;SDS011;5892;43.412;24.612;2022-08-19T10:58:42;6.38;;;4.47;;
11671;SDS011;5892;43.412;24.612;2022-08-19T11:01:09;4.85;;;4.40;;
11671;SDS011;5892;43.412;24.612;2022-08-19T11:03:37;6.50;;;4.90;;
11671;SDS011;5892;43.412;24.612;2022-08-19T11:06:07;8.02;;;4.95;;
11671;SDS011;5892;43.412;24.612;2022-08-19T11:08:35;6.75;;;4.70;;
11671;SDS011;5892;43.412;24.612;2022-08-19T11:11:05;7.55;;;4.80;;
11671;SDS011;5892;43.412;24.612;2022-08-19T11:13:34;8.43;;;4.68;;
11671;SDS011;5892;43.412;24.612;2022-08-19T11:16:04;7.22;;;4.93;;
11671;SDS011;5892;43.412;24.612;2022-08-19T11:18:35;8.35;;;4.70;;
11671;SDS011;5892;43.412;24.612;2022-08-19T11:21:09;6.85;;;4.65;;
11671;SDS011;5892;43.412;24.612;2022-08-19T11:23:42;6.63;;;4.65;;
11671;SDS011;5892;43.412;24.612;2022-08-19T11:26:10;6.05;;;4.47;;
11671;SDS011;5892;43.412;24.612;2022-08-19T11:28:38;12.18;;;4.65;;
11671;SDS011;5892;43.412;24.612;2022-08-19T11:31:21;7.30;;;4.43;;
11671;SDS011;5892;43.412;24.612;2022-08-19T11:34:30;6.97;;;4.40;;
11671;SDS011;5892;43.412;24.612;2022-08-19T11:36:59;8.05;;;4.45;;
11671;SDS011;5892;43.412;24.612;2022-08-19T11:39:29;6.25;;;4.32;;
11671;SDS011;5892;43.412;24.612;2022-08-19T11:41:58;6.47;;;4.25;;
11671;SDS011;5892;43.412;24.612;2022-08-19T11:44:50;8.05;;;4.35;;
11671;SDS011;5892;43.412;24.612;2022-08-19T11:47:20;6.18;;;4.38;;
11671;SDS011;5892;43.412;24.612;2022-08-19T11:50:13;5.22;;;4.50;;
11671;SDS011;5892;43.412;24.612;2022-08-19T11:52:43;7.80;;;4.40;;
11671;SDS011;5892;43.412;24.612;2022-08-19T11:55:10;7.10;;;4.70;;
11671;SDS011;5892;43.412;24.612;2022-08-19T12:04:24;5.80;;;4.40;;
11671;SDS011;5892;43.412;24.612;2022-08-19T12:06:51;8.18;;;4.57;;
11671;SDS011;5892;43.412;24.612;2022-08-19T12:09:24;6.43;;;4.45;;
11671;SDS011;5892;43.412;24.612;2022-08-19T12:11:51;6.53;;;4.30;;
11671;SDS011;5892;43.412;24.612;2022-08-19T12:14:19;11.82;;;4.90;;
11671;SDS011;5892;43.412;24.612;2022-08-19T12:16:46;5.20;;;4.70;;
11671;SDS011;5892;43.412;24.612;2022-08-19T12:19:14;6.93;;;4.07;;
11671;SDS011;5892;43.412;24.612;2022-08-19T12:21:42;9.55;;;4.80;;
11671;SDS011;5892;43.412;24.612;2022-08-19T12:24:14;6.00;;;4.70;;
11671;SDS011;5892;43.412;24.612;2022-08-19T12:26:49;5.07;;;4.57;;
11671;SDS011;5892;43.412;24.612;2022-08-19T12:29:18;7.00;;;4.47;;
11671;SDS011;5892;43.412;24.612;2022-08-19T12:31:46;5.00;;;4.45;;
11671;SDS011;5892;43.412;24.612;2022-08-19T12:34:13;7.93;;;4.75;;
11671;SDS011;5892;43.412;24.612;2022-08-19T12:36:41;7.38;;;4.60;;
11671;SDS011;5892;43.412;24.612;2022-08-19T12:39:08;5.40;;;4.90;;
11671;SDS011;5892;43.412;24.612;2022-08-19T12:41:35;6.57;;;4.80;;
11671;SDS011;5892;43.412;24.612;2022-08-19T12:44:08;5.07;;;4.18;;
11671;SDS011;5892;43.412;24.612;2022-08-19T12:46:37;4.97;;;4.45;;
11671;SDS011;5892;43.412;24.612;2022-08-19T12:49:04;5.43;;;4.68;;
11671;SDS011;5892;43.412;24.612;2022-08-19T12:51:31;6.53;;;4.60;;
11671;SDS011;5892;43.412;24.612;2022-08-19T12:54:00;6.05;;;4.30;;
11671;SDS011;5892;43.412;24.612;2022-08-19T12:56:30;5.20;;;4.70;;
11671;SDS011;5892;43.412;24.612;2022-08-19T12:59:00;7.07;;;4.30;;
11671;SDS011;5892;43.412;24.612;2022-08-19T13:01:30;6.60;;;4.90;;
11671;SDS011;5892;43.412;24.612;2022-08-19T13:03:58;7.50;;;4.53;;
11671;SDS011;5892;43.412;24.612;2022-08-19T13:06:26;7.30;;;4.65;;
11671;SDS011;5892;43.412;24.612;2022-08-19T13:08:53;8.35;;;4.78;;
11671;SDS011;5892;43.412;24.612;2022-08-19T13:11:23;7.97;;;4.68;;
11671;SDS011;5892;43.412;24.612;2022-08-19T13:13:51;7.30;;;5.00;;
11671;SDS011;5892;43.412;24.612;2022-08-19T13:16:22;8.02;;;4.90;;
11671;SDS011;5892;43.412;24.612;2022-08-19T13:18:55;4.97;;;4.47;;
11671;SDS011;5892;43.412;24.612;2022-08-19T13:21:24;8.43;;;4.97;;
11671;SDS011;5892;43.412;24.612;2022-08-19T13:23:55;11.10;;;4.90;;
11671;SDS011;5892;43.412;24.612;2022-08-19T13:26:23;5.68;;;4.40;;
11671;SDS011;5892;43.412;24.612;2022-08-19T13:29:01;6.05;;;4.65;;
11671;SDS011;5892;43.412;24.612;2022-08-19T13:31:46;6.65;;;4.85;;
11671;SDS011;5892;43.412;24.612;2022-08-19T13:34:33;5.88;;;4.40;;
11671;SDS011;5892;43.412;24.612;2022-08-19T13:37:02;10.10;;;4.82;;
11671;SDS011;5892;43.412;24.612;2022-08-19T13:39:32;7.85;;;4.78;;
11671;SDS011;5892;43.412;24.612;2022-08-19T13:42:00;6.13;;;4.78;;
11671;SDS011;5892;43.412;24.612;2022-08-19T13:44:29;6.82;;;4.95;;
11671;SDS011;5892;43.412;24.612;2022-08-19T13:46:59;6.88;;;5.00;;
11671;SDS011;5892;43.412;24.612;2022-08-19T13:49:33;5.82;;;4.25;;
11671;SDS011;5892;43.412;24.612;2022-08-19T13:52:03;8.50;;;4.25;;
11671;SDS011;5892;43.412;24.612;2022-08-19T13:54:53;5.97;;;4.63;;
11671;SDS011;5892;43.412;24.612;2022-08-19T13:57:21;7.57;;;4.72;;
11671;SDS011;5892;43.412;24.612;2022-08-19T14:00:03;6.22;;;4.68;;
11671;SDS011;5892;43.412;24.612;2022-08-19T14:02:49;7.65;;;5.13;;
11671;SDS011;5892;43.412;24.612;2022-08-19T14:05:21;9.75;;;5.15;;
11671;SDS011;5892;43.412;24.612;2022-08-19T14:07:49;5.53;;;4.38;;
11671;SDS011;5892;43.412;24.612;2022-08-19T14:10:19;7.93;;;5.00;;
11671;SDS011;5892;43.412;24.612;2022-08-19T14:12:47;9.13;;;4.90;;
11671;SDS011;5892;43.412;24.612;2022-08-19T14:15:15;7.70;;;4.85;;
11671;SDS011;5892;43.412;24.612;2022-08-19T14:17:43;5.25;;;4.30;;
11671;SDS011;5892;43.412;24.612;2022-08-19T14:20:14;8.00;;;4.70;;
11671;SDS011;5892;43.412;24.612;2022-08-19T14:25:28;4.93;;;4.43;;
11671;SDS011;5892;43.412;24.612;2022-08-19T14:27:56;5.72;;;4.93;;
11671;SDS011;5892;43.412;24.612;2022-08-19T14:30:25;12.93;;;4.72;;
11671;SDS011;5892;43.412;24.612;2022-08-19T14:32:55;6.60;;;4.88;;
11671;SDS011;5892;43.412;24.612;2022-08-19T14:35:24;9.25;;;5.13;;
11671;SDS011;5892;43.412;24.612;2022-08-19T14:37:53;10.63;;;4.88;;
11671;SDS011;5892;43.412;24.612;2022-08-19T14:40:26;7.68;;;4.50;;
11671;SDS011;5892;43.412;24.612;2022-08-19T14:42:55;8.80;;;4.93;;
11671;SDS011;5892;43.412;24.612;2022-08-19T14:45:29;6.70;;;4.60;;
11671;SDS011;5892;43.412;24.612;2022-08-19T14:47:57;8.73;;;4.20;;
11671;SDS011;5892;43.412;24.612;2022-08-19T14:50:26;4.68;;;4.28;;
11671;SDS011;5892;43.412;24.612;2022-08-19T14:52:57;9.40;;;4.60;;
11671;SDS011;5892;43.412;24.612;2022-08-19T14:55:28;6.10;;;4.38;;
11671;SDS011;5892;43.412;24.612;2022-08-19T14:57:56;5.95;;;4.05;;
11671;SDS011;5892;43.412;24.612;2022-08-19T15:00:24;11.77;;;4.55;;
11671;SDS011;5892;43.412;24.612;2022-08-19T15:02:52;5.13;;;4.13;;
11671;SDS011;5892;43.412;24.612;2022-08-19T15:05:19;8.45;;;4.35;;
11671;SDS011;5892;43.412;24.612;2022-08-19T15:07:47;7.97;;;4.97;;
11671;SDS011;5892;43.412;24.612;2022-08-19T15:10:16;6.40;;;4.10;;
11671;SDS011;5892;43.412;24.612;2022-08-19T15:12:44;7.38;;;4.38;;
11671;SDS011;5892;43.412;24.612;2022-08-19T15:15:13;10.18;;;4.47;;
11671;SDS011;5892;43.412;24.612;2022-08-19T15:17:42;4.50;;;4.10;;
11671;SDS011;5892;43.412;24.612;2022-08-19T15:20:12;5.63;;;4.22;;
11671;SDS011;5892;43.412;24.612;2022-08-19T15:22:42;8.70;;;4.78;;
11671;SDS011;5892;43.412;24.612;2022-08-19T15:25:12;6.43;;;4.90;;
11671;SDS011;5892;43.412;24.612;2022-08-19T15:27:41;12.73;;;5.40;;
11671;SDS011;5892;43.412;24.612;2022-08-19T15:30:11;10.05;;;4.95;;
11671;SDS011;5892;43.412;24.612;2022-08-19T15:32:39;7.00;;;4.75;;
11671;SDS011;5892;43.412;24.612;2022-08-19T15:35:06;9.95;;;6.38;;
11671;SDS011;5892;43.412;24.612;2022-08-19T15:37:34;5.35;;;4.82;;
11671;SDS011;5892;43.412;24.612;2022-08-19T15:40:01;6.47;;;4.60;;
11671;SDS011;5892;43.412;24.612;2022-08-19T15:42:28;9.98;;;4.88;;
11671;SDS011;5892;43.412;24.612;2022-08-19T15:44:57;7.30;;;4.75;;
11671;SDS011;5892;43.412;24.612;2022-08-19T15:47:25;6.55;;;4.57;;
11671;SDS011;5892;43.412;24.612;2022-08-19T15:49:57;13.00;;;4.70;;
11671;SDS011;5892;43.412;24.612;2022-08-19T15:52:27;5.93;;;4.88;;
11671;SDS011;5892;43.412;24.612;2022-08-19T15:54:54;9.50;;;4.72;;
11671;SDS011;5892;43.412;24.612;2022-08-19T15:57:23;11.45;;;5.28;;
11671;SDS011;5892;43.412;24.612;2022-08-19T16:00:07;6.43;;;4.40;;
11671;SDS011;5892;43.412;24.612;2022-08-19T16:02:54;8.02;;;4.97;;
11671;SDS011;5892;43.412;24.612;2022-08-19T16:05:38;8.30;;;4.80;;
11671;SDS011;5892;43.412;24.612;2022-08-19T16:08:22;7.35;;;4.80;;
11671;SDS011;5892;43.412;24.612;2022-08-19T16:10:51;7.57;;;5.10;;
11671;SDS011;5892;43.412;24.612;2022-08-19T16:13:21;7.47;;;4.90;;
11671;SDS011;5892;43.412;24.612;2022-08-19T16:15:48;10.75;;;4.97;;
11671;SDS011;5892;43.412;24.612;2022-08-19T16:18:24;10.70;;;4.72;;
11671;SDS011;5892;43.412;24.612;2022-08-19T16:20:52;8.32;;;4.95;;
11671;SDS011;5892;43.412;24.612;2022-08-19T16:23:20;6.35;;;4.80;;
11671;SDS011;5892;43.412;24.612;2022-08-19T16:25:47;11.48;;;4.93;;
11671;SDS011;5892;43.412;24.612;2022-08-19T16:28:16;6.40;;;4.97;;
11671;SDS011;5892;43.412;24.612;2022-08-19T16:30:44;12.05;;;5.45;;
11671;SDS011;5892;43.412;24.612;2022-08-19T16:33:11;10.77;;;5.15;;
11671;SDS011;5892;43.412;24.612;2022-08-19T16:35:40;12.68;;;5.53;;
11671;SDS011;5892;43.412;24.612;2022-08-19T16:38:07;8.52;;;5.43;;
11671;SDS011;5892;43.412;24.612;2022-08-19T16:40:35;9.50;;;4.57;;
11671;SDS011;5892;43.412;24.612;2022-08-19T16:43:23;7.75;;;4.70;;
11671;SDS011;5892;43.412;24.612;2022-08-19T16:45:51;7.38;;;4.60;;
11671;SDS011;5892;43.412;24.612;2022-08-19T16:48:20;10.32;;;5.18;;
11671;SDS011;5892;43.412;24.612;2022-08-19T16:50:50;5.38;;;4.18;;
11671;SDS011;5892;43.412;24.612;2022-08-19T16:53:20;7.57;;;4.25;;
11671;SDS011;5892;43.412;24.612;2022-08-19T16:55:54;11.45;;;4.40;;